Flight Track Log - Related Links

Times and Time Zones

All times are in EDT time to prevent confusion due to time zone crossing. See the PDT4373 flight status page for this flight to view local times or setup timezone preferences in your user account.

Time Position Orientation Groundspeed Altitude Reporting Facility
EDT Latitude Longitude Course Direction KTS MPH feet Rate Location/Type
Wed 10:59:16 AM 39.8833 -75.2167 311° West 137 158 700  Level Philadelphia TRACON
Wed 10:59:40 AM 39.8833 -75.2000 90° East 123 142 1,300 1,154 Climbing Philadelphia TRACON
Wed 11:00:34 AM 39.9167 -75.1667 37° Northeast 155 178 2,200 1,200 Climbing Philadelphia TRACON
Wed 11:01:00 AM 40.0975 -75.3098 311° West  Level Estimated
Wed 11:01:40 AM 39.9667 -75.1667 360° North 158 182 3,700  Level Philadelphia TRACON
Wed 11:02:00 AM 40.1725 -75.3328 311° West  Level Estimated
Wed 11:02:35 AM 40.0000 -75.1833 339° North 163 188 4,800  Level Philadelphia TRACON
Wed 11:03:00 AM 40.2079 -75.4225 297° West  Level FlightAware Approximate
Wed 11:03:40 AM 40.0500 -75.2000 346° North 162 186 6,400  Level Philadelphia TRACON
Wed 11:04:00 AM 40.2834 -75.4429 311° West  Level Estimated
Wed 11:04:41 AM 40.0833 -75.2167 339° North 170 196 7,600  Level Philadelphia TRACON
Wed 11:05:41 AM 40.1333 -75.2500 333° Northwest 176 203 8,700 1,149 Climbing Philadelphia TRACON
Wed 11:06:15 AM 40.1358 -75.2778 277° West 175 201 9,400 1,085 Climbing New York Center
Wed 11:07:15 AM 40.1497 -75.3467 285° West 175 201 10,400 1,150 Climbing New York Center
Wed 11:08:15 AM 40.1708 -75.3942 300° West 175 201 11,700 750 Climbing New York Center
Wed 11:09:15 AM 40.1892 -75.4608 290° West 196 226 11,900 150 Climbing New York Center
Wed 11:10:15 AM 40.2133 -75.5331 294° West 211 243 12,000 50 Climbing New York Center
Wed 11:11:15 AM 40.2478 -75.6061 302° West 226 260 12,000  Level New York Center
Wed 11:12:15 AM 40.2933 -75.6692 313° West 232 267 12,000  Level New York Center
Wed 11:13:15 AM 40.3303 -75.7317 308° West 243 280 12,000  Level New York Center
Wed 11:14:15 AM 40.3775 -75.7950 314° West 243 280 12,000  Level New York Center
Wed 11:15:15 AM 40.4242 -75.8719 309° West 243 280 12,000  Level New York Center
Wed 11:16:15 AM 40.4714 -75.9383 313° West 243 280 12,000  Level New York Center
Wed 11:17:15 AM 40.5167 -76.0017 313° West 243 280 12,000  Level New York Center
Wed 11:18:15 AM 40.5797 -76.0339 339° North 243 280 12,000 -50 Level New York Center
Wed 11:19:15 AM 40.6436 -76.0525 348° North 250 288 11,900 -50 Descending New York Center
Wed 11:20:15 AM 40.7239 -76.0722 349° North 257 296 11,900 50 Level New York Center
Wed 11:21:15 AM 40.7939 -76.0886 350° North 257 296 12,000 50 Climbing New York Center
Wed 11:22:15 AM 40.8658 -76.1108 347° North 257 296 12,000  Level New York Center
Wed 11:23:15 AM 40.9275 -76.1294 347° North 257 296 12,000  Level New York Center
Wed 11:24:15 AM 40.9978 -76.1431 352° North 257 296 12,000 -400 Level New York Center
Wed 11:25:15 AM 41.0697 -76.1625 348° North 257 296 11,200 -950 Descending New York Center
Wed 11:26:15 AM 41.1522 -76.1856 348° North 269 310 10,100 -900 Descending New York Center
Wed 11:27:15 AM 41.2142 -76.1989 351° North 241 277 9,400 -550 Descending New York Center
Wed 11:28:15 AM 41.2742 -76.2064 355° North 218 251 9,000 -200 Descending New York Center
Wed 11:29:15 AM 41.3328 -76.2003 North 225 259 9,000  Level New York Center
Wed 11:30:15 AM 41.3933 -76.1967 North 230 265 9,000 -300 Level New York Center
Wed 11:31:15 AM 41.4581 -76.1908 North 215 247 8,400 -1,000 Descending New York Center
Wed 11:32:15 AM 41.5186 -76.1875 North 215 247 7,000 -700 Descending New York Center
Wed 11:33:15 AM 41.5772 -76.1839 North 215 247 7,000  Level New York Center
Wed 11:34:15 AM 41.6356 -76.1803 North 220 253 7,000 -667 Level New York Center
Wed 11:36:15 AM 41.7717 -76.1664 North 230 265 5,000 -667 Descending New York Center
Wed 11:37:15 AM 41.8300 -76.1656 North 220 253 5,000  Level New York Center
Wed 11:38:15 AM 41.8928 -76.1594 North 220 253 5,000  Level New York Center
Wed 11:39:15 AM 41.9503 -76.1278 22° Northeast 227 261 5,000  Level New York Center
Wed 11:40:15 AM 42.0142 -76.0967 20° North 237 273 5,000  Level New York Center
Wed 11:41:15 AM 42.0844 -76.0606 21° North 237 273 5,000 1,000 Level New York Center
Wed 11:42:15 AM 42.1444 -76.0233 25° Northeast 237 273 7,000 -1,050 Climbing New York Center
Wed 11:43:15 AM 42.1950 -76.0106 11° North 220 253 2,900 -2,350 Descending New York Center
Wed 11:44:15 AM 42.2300 -76.0189 350° North 166 191 2,300 -350 Descending New York Center
Wed 11:45:15 AM 42.2717 -76.0167 North 157 181 2,200 -100 Descending New York Center

Login

Don't have an account? Register now (free) for customized features, flight alerts, and more!